Time;durP1;ratioP1;P1;durP2;ratioP2;P2;SDS_P1;SDS_P2;PMS_P1;PMS_P2;Temp;Humidity;BMP_temperature;BMP_pressure;BME280_temperature;BME280_humidity;BME280_pressure;Samples;Min_cycle;Max_cycle;Signal;HPM_P1;HPM_P2
2022/03/03 00:00:19;;;;;;;;;;;9.80;99.90;;;;;;5057088;28;20392;-77
2022/03/03 00:02:45;;;;;;;;;;;9.80;99.90;;;;;;5056822;28;20380;-77
2022/03/03 00:05:11;;;;;;;;;;;9.70;99.90;;;;;;5056697;28;19951;-78
2022/03/03 00:07:37;;;;;;;;;;;9.60;99.90;;;;;;5056540;28;19909;-78
2022/03/03 00:10:06;;;;;;;;;;;9.80;99.90;;;;;;5056586;28;19916;-77
2022/03/03 00:12:32;;;;;;;;;;;9.80;99.90;;;;;;5055217;28;19909;-77
2022/03/03 00:14:58;;;;;;;;;;;9.80;99.90;;;;;;5056389;28;19913;-77
2022/03/03 00:17:23;;;;;;;;;;;9.80;99.90;;;;;;5056158;28;19962;-78
2022/03/03 00:19:49;;;;;;;;;;;9.70;99.90;;;;;;5056367;28;19909;-77
2022/03/03 00:22:15;;;;;;;;;;;9.70;99.90;;;;;;5056259;28;19986;-77
2022/03/03 00:24:41;;;;;;;;;;;9.80;99.90;;;;;;5056565;28;20380;-78
2022/03/03 00:27:07;;;;;;;;;;;9.70;99.90;;;;;;5054953;28;19913;-77
2022/03/03 00:29:32;;;;;;;;;;;9.70;99.90;;;;;;5054917;28;19931;-78
2022/03/03 00:31:58;;;;;;;;;;;9.90;99.90;;;;;;5056130;28;20022;-77
2022/03/03 00:34:24;;;;;;;;;;;9.90;99.90;;;;;;5056223;28;20000;-77
2022/03/03 00:36:49;;;;;;;;;;;9.90;99.90;;;;;;5055814;28;19916;-77
2022/03/03 00:39:15;;;;;;;;;;;9.80;99.90;;;;;;5055984;28;19920;-78
2022/03/03 00:41:40;;;;;;;;;;;9.90;99.90;;;;;;5056008;28;20410;-77
2022/03/03 00:44:06;;;;;;;;;;;10.00;99.90;;;;;;5055898;28;19909;-77
2022/03/03 00:46:33;;;;;;;;;;;10.10;99.90;;;;;;5055894;28;19908;-77
2022/03/03 00:48:58;;;;;;;;;;;10.00;99.90;;;;;;5055859;28;19916;-77
2022/03/03 00:51:24;;;;;;;;;;;10.00;99.90;;;;;;5055811;28;19927;-77
2022/03/03 00:53:50;;;;;;;;;;;10.00;99.90;;;;;;5055817;28;20311;-77
2022/03/03 00:56:17;;;;;;;;;;;10.00;99.90;;;;;;5055661;28;20015;-78
2022/03/03 00:58:43;;;;;;;;;;;10.00;99.90;;;;;;5054381;28;19909;-77
2022/03/03 01:01:08;;;;;;;;;;;10.00;99.90;;;;;;5055554;28;19912;-77
2022/03/03 01:03:34;;;;;;;;;;;10.00;99.90;;;;;;5055684;28;19920;-77
2022/03/03 01:06:00;;;;;;;;;;;10.20;99.90;;;;;;5055492;28;19959;-77
2022/03/03 01:08:25;;;;;;;;;;;10.20;99.90;;;;;;5054179;28;20357;-78
2022/03/03 01:10:51;;;;;;;;;;;10.20;99.90;;;;;;5054132;28;19909;-78
2022/03/03 01:13:17;;;;;;;;;;;10.10;99.90;;;;;;5055404;28;19999;-77
2022/03/03 01:15:43;;;;;;;;;;;10.20;99.90;;;;;;5055326;28;19913;-78
2022/03/03 01:18:09;;;;;;;;;;;10.30;99.90;;;;;;5055296;28;19916;-77
2022/03/03 01:20:34;;;;;;;;;;;10.10;99.90;;;;;;5055450;28;19912;-78
2022/03/03 01:23:00;;;;;;;;;;;10.20;99.90;;;;;;5055393;28;19916;-78
2022/03/03 01:25:26;;;;;;;;;;;10.30;99.90;;;;;;5055301;28;19909;-77
2022/03/03 01:27:52;;;;;;;;;;;10.30;99.90;;;;;;5055185;28;20003;-77
2022/03/03 01:30:17;;;;;;;;;;;10.20;99.90;;;;;;5054399;28;19909;-77
2022/03/03 01:32:43;;;;;;;;;;;10.20;99.90;;;;;;5055037;28;19915;-77
2022/03/03 01:35:08;;;;;;;;;;;10.20;99.90;;;;;;5054856;28;20011;-77
2022/03/03 01:37:34;;;;;;;;;;;10.20;99.90;;;;;;5054925;28;19955;-77
2022/03/03 01:40:00;;;;;;;;;;;10.20;99.90;;;;;;5054860;28;19909;-78
2022/03/03 01:42:25;;;;;;;;;;;10.30;99.90;;;;;;5054873;28;19916;-77
2022/03/03 01:44:51;;;;;;;;;;;10.20;99.90;;;;;;5053463;28;19909;-77
2022/03/03 01:47:18;;;;;;;;;;;10.30;99.90;;;;;;5053401;28;19909;-77
2022/03/03 01:49:44;;;;;;;;;;;10.30;99.90;;;;;;5054689;28;19909;-78
2022/03/03 01:52:09;;;;;;;;;;;10.30;99.90;;;;;;5053325;28;19932;-77
2022/03/03 01:54:35;;;;;;;;;;;10.30;99.90;;;;;;5053183;28;20269;-77
2022/03/03 01:57:01;;;;;;;;;;;10.20;99.90;;;;;;5054546;28;19908;-78
2022/03/03 01:59:27;;;;;;;;;;;10.00;99.90;;;;;;5054715;28;20387;-77
2022/03/03 02:01:52;;;;;;;;;;;10.00;99.90;;;;;;5054557;28;20384;-78
2022/03/03 02:04:18;;;;;;;;;;;10.00;99.90;;;;;;5054365;28;19909;-77
2022/03/03 02:06:44;;;;;;;;;;;9.90;99.90;;;;;;5054525;28;19908;-78
2022/03/03 02:09:09;;;;;;;;;;;9.90;99.90;;;;;;5053021;28;19916;-79
2022/03/03 02:11:35;;;;;;;;;;;9.90;99.90;;;;;;5054315;28;19912;-77
2022/03/03 02:14:04;;;;;;;;;;;9.90;99.90;;;;;;5054286;28;19909;-78
2022/03/03 02:16:30;;;;;;;;;;;9.90;99.90;;;;;;5052825;28;20431;-76
2022/03/03 02:18:56;;;;;;;;;;;9.90;99.90;;;;;;5054175;28;19958;-77
2022/03/03 02:21:22;;;;;;;;;;;10.00;99.90;;;;;;5054105;28;19908;-78
2022/03/03 02:23:48;;;;;;;;;;;10.00;99.90;;;;;;5052765;28;20341;-78
2022/03/03 02:26:21;;;;;;;;;;;10.00;99.90;;;;;;5054040;28;19956;-77
2022/03/03 02:28:47;;;;;;;;;;;10.10;99.90;;;;;;5052678;28;20376;-77
2022/03/03 02:31:13;;;;;;;;;;;10.10;99.90;;;;;;5053959;28;19954;-78
2022/03/03 02:33:38;;;;;;;;;;;10.10;99.90;;;;;;5054141;28;19908;-77
2022/03/03 02:36:14;;;;;;;;;;;10.10;99.90;;;;;;5053668;28;20396;-77
2022/03/03 02:38:40;;;;;;;;;;;10.10;99.90;;;;;;5054067;28;20389;-77
2022/03/03 02:41:05;;;;;;;;;;;10.10;99.90;;;;;;5052511;28;19909;-77
2022/03/03 02:43:31;;;;;;;;;;;10.10;99.90;;;;;;5054104;28;20359;-77
2022/03/03 02:45:57;;;;;;;;;;;10.10;99.90;;;;;;5053844;28;19916;-78
2022/03/03 02:48:22;;;;;;;;;;;10.10;99.90;;;;;;5054065;28;20384;-78
2022/03/03 02:50:48;;;;;;;;;;;10.10;99.90;;;;;;5053960;28;19908;-77
2022/03/03 02:53:13;;;;;;;;;;;10.10;99.90;;;;;;5053574;28;19995;-76
2022/03/03 02:55:39;;;;;;;;;;;10.10;99.90;;;;;;5053974;28;19924;-78
2022/03/03 02:58:05;;;;;;;;;;;10.10;99.90;;;;;;5053634;28;20027;-77
2022/03/03 03:00:38;;;;;;;;;;;10.10;99.90;;;;;;5054149;28;19912;-76
2022/03/03 03:03:04;;;;;;;;;;;10.00;99.90;;;;;;5053591;28;19912;-77
2022/03/03 03:05:29;;;;;;;;;;;10.10;99.90;;;;;;5053787;28;20258;-77
2022/03/03 03:07:55;;;;;;;;;;;10.10;99.90;;;;;;5053571;28;19919;-77
2022/03/03 03:10:20;;;;;;;;;;;10.10;99.90;;;;;;5052249;28;19920;-77
2022/03/03 03:12:46;;;;;;;;;;;10.10;99.90;;;;;;5053638;28;19981;-78
2022/03/03 03:15:12;;;;;;;;;;;10.10;99.90;;;;;;5052114;28;19956;-77
2022/03/03 03:17:37;;;;;;;;;;;10.10;99.90;;;;;;5053461;28;19909;-78
2022/03/03 03:20:06;;;;;;;;;;;10.10;99.90;;;;;;5053552;28;20296;-77
2022/03/03 03:22:32;;;;;;;;;;;10.10;99.90;;;;;;5053453;28;19931;-78
2022/03/03 03:24:58;;;;;;;;;;;10.20;99.90;;;;;;5053720;28;19908;-77
2022/03/03 03:27:23;;;;;;;;;;;10.10;99.90;;;;;;5053578;28;19916;-77
2022/03/03 03:29:49;;;;;;;;;;;10.20;99.90;;;;;;5053458;28;19920;-76
2022/03/03 03:32:15;;;;;;;;;;;10.10;99.90;;;;;;5053270;28;19913;-77
2022/03/03 03:34:40;;;;;;;;;;;10.00;99.90;;;;;;5053213;28;19966;-77
2022/03/03 03:37:06;;;;;;;;;;;10.10;99.90;;;;;;5053058;28;20272;-77
2022/03/03 03:39:31;;;;;;;;;;;10.10;99.90;;;;;;5053360;28;19909;-78
2022/03/03 03:41:57;;;;;;;;;;;10.10;99.90;;;;;;5053213;28;19916;-77
2022/03/03 03:44:22;;;;;;;;;;;10.10;99.90;;;;;;5053182;28;19908;-78
2022/03/03 03:46:48;;;;;;;;;;;10.10;99.90;;;;;;5053152;28;19909;-77
2022/03/03 03:49:14;;;;;;;;;;;10.10;99.90;;;;;;5053555;28;19916;-77
2022/03/03 03:51:39;;;;;;;;;;;10.10;99.90;;;;;;5053173;28;20398;-77
2022/03/03 03:54:05;;;;;;;;;;;10.20;99.90;;;;;;5056455;28;19913;-77
2022/03/03 03:56:31;;;;;;;;;;;10.20;99.90;;;;;;5056723;28;20364;-78
2022/03/03 03:58:56;;;;;;;;;;;10.20;99.90;;;;;;5057367;28;19962;-78
2022/03/03 04:01:22;;;;;;;;;;;10.10;99.90;;;;;;5056755;28;19959;-77
2022/03/03 04:03:48;;;;;;;;;;;10.10;99.90;;;;;;5056949;28;19909;-77
2022/03/03 04:06:13;;;;;;;;;;;10.20;99.90;;;;;;5056782;28;19932;-77
2022/03/03 04:08:39;;;;;;;;;;;10.20;99.90;;;;;;5056602;28;20383;-77
2022/03/03 04:11:05;;;;;;;;;;;10.30;99.90;;;;;;5056710;28;19920;-77
2022/03/03 04:13:30;;;;;;;;;;;10.20;99.90;;;;;;5056655;28;20254;-78
2022/03/03 04:15:56;;;;;;;;;;;10.30;99.90;;;;;;5056402;28;19913;-77
2022/03/03 04:18:21;;;;;;;;;;;10.30;99.90;;;;;;5056411;28;19909;-77
2022/03/03 04:20:47;;;;;;;;;;;10.30;99.90;;;;;;5056981;28;19909;-78
2022/03/03 04:23:15;;;;;;;;;;;10.30;99.90;;;;;;5056293;28;19908;-77
2022/03/03 04:25:40;;;;;;;;;;;10.30;99.90;;;;;;5056285;28;19968;-77
2022/03/03 04:28:06;;;;;;;;;;;10.30;99.90;;;;;;5056279;28;19921;-77
2022/03/03 04:30:32;;;;;;;;;;;10.30;99.90;;;;;;5056188;28;20416;-78
2022/03/03 04:32:57;;;;;;;;;;;10.20;99.90;;;;;;5056328;28;20364;-78
2022/03/03 04:35:23;;;;;;;;;;;10.30;99.90;;;;;;5056222;28;19979;-77
2022/03/03 04:37:48;;;;;;;;;;;10.20;99.90;;;;;;5055904;28;19991;-77
2022/03/03 04:40:14;;;;;;;;;;;10.20;99.90;;;;;;5056601;28;19960;-78
2022/03/03 04:42:40;;;;;;;;;;;10.30;99.90;;;;;;5055986;28;19909;-77
2022/03/03 04:45:06;;;;;;;;;;;10.30;99.90;;;;;;5056286;28;19909;-78
2022/03/03 04:47:31;;;;;;;;;;;10.30;99.90;;;;;;5055864;28;19908;-77
2022/03/03 04:49:57;;;;;;;;;;;10.30;99.90;;;;;;5054548;28;19916;-77
2022/03/03 04:52:23;;;;;;;;;;;10.30;99.90;;;;;;5054489;28;19908;-77
2022/03/03 04:54:49;;;;;;;;;;;10.30;99.90;;;;;;5055611;28;19923;-77
2022/03/03 04:57:15;;;;;;;;;;;10.20;99.90;;;;;;5054389;28;19916;-77
2022/03/03 04:59:41;;;;;;;;;;;10.20;99.90;;;;;;5055722;28;19909;-77
2022/03/03 05:02:06;;;;;;;;;;;10.20;99.90;;;;;;5056182;28;19909;-77
2022/03/03 05:04:32;;;;;;;;;;;10.20;99.90;;;;;;5054453;28;20328;-77
2022/03/03 05:06:58;;;;;;;;;;;10.20;99.90;;;;;;5055531;28;19996;-77
2022/03/03 05:09:24;;;;;;;;;;;10.20;99.90;;;;;;5055476;28;19944;-77
2022/03/03 05:11:49;;;;;;;;;;;10.20;99.90;;;;;;5055550;28;19916;-77
2022/03/03 05:14:15;;;;;;;;;;;10.30;99.90;;;;;;5055468;28;19913;-78
2022/03/03 05:16:40;;;;;;;;;;;10.20;99.90;;;;;;5055180;28;20381;-78
2022/03/03 05:19:06;;;;;;;;;;;10.20;99.90;;;;;;5055454;28;19913;-77
2022/03/03 05:21:31;;;;;;;;;;;10.20;99.90;;;;;;5055402;28;20274;-77
2022/03/03 05:23:58;;;;;;;;;;;10.30;99.90;;;;;;5054913;28;20432;-77
2022/03/03 05:26:23;;;;;;;;;;;10.30;99.90;;;;;;5055143;28;19962;-77
2022/03/03 05:28:49;;;;;;;;;;;10.30;99.90;;;;;;5055318;28;19909;-77
2022/03/03 05:31:17;;;;;;;;;;;10.30;99.90;;;;;;5054218;28;20218;-77
2022/03/03 05:33:43;;;;;;;;;;;10.30;99.90;;;;;;5054983;28;19916;-77
2022/03/03 05:36:10;;;;;;;;;;;10.30;99.90;;;;;;5054659;28;19913;-77
2022/03/03 05:38:36;;;;;;;;;;;10.30;99.90;;;;;;5055385;28;20415;-77
2022/03/03 05:41:03;;;;;;;;;;;10.20;99.90;;;;;;5055003;28;19916;-77
2022/03/03 05:43:28;;;;;;;;;;;10.20;99.90;;;;;;5054916;28;19909;-77
2022/03/03 05:45:54;;;;;;;;;;;10.20;99.90;;;;;;5054783;28;19909;-77
2022/03/03 05:48:20;;;;;;;;;;;10.10;99.90;;;;;;5054702;28;19915;-77
2022/03/03 05:50:49;;;;;;;;;;;10.10;99.90;;;;;;5053341;28;19909;-77
2022/03/03 05:53:16;;;;;;;;;;;10.10;99.90;;;;;;5054466;28;19913;-77
2022/03/03 05:55:44;;;;;;;;;;;10.10;99.90;;;;;;5054480;28;19913;-77
2022/03/03 05:58:17;;;;;;;;;;;10.10;99.90;;;;;;5054512;28;20394;-77
2022/03/03 06:00:47;;;;;;;;;;;10.10;99.90;;;;;;5054501;28;19916;-78
2022/03/03 06:03:16;;;;;;;;;;;10.10;99.90;;;;;;5053128;28;19932;-77
2022/03/03 06:05:46;;;;;;;;;;;10.10;99.90;;;;;;5054380;28;19909;-78
2022/03/03 06:08:26;;;;;;;;;;;10.10;99.90;;;;;;5053093;28;20281;-77
2022/03/03 06:10:52;;;;;;;;;;;10.10;99.90;;;;;;5054454;28;19991;-78
2022/03/03 06:13:28;;;;;;;;;;;10.10;99.90;;;;;;5054307;28;19909;-77
2022/03/03 06:15:54;;;;;;;;;;;10.10;99.90;;;;;;5054096;28;20284;-77
2022/03/03 06:18:23;;;;;;;;;;;10.10;99.90;;;;;;5054568;28;19909;-77
2022/03/03 06:20:51;;;;;;;;;;;10.10;99.90;;;;;;5054479;28;20363;-77
2022/03/03 06:23:17;;;;;;;;;;;10.10;99.90;;;;;;5052731;28;19913;-77
2022/03/03 06:25:43;;;;;;;;;;;10.10;99.90;;;;;;5054119;28;19958;-77
2022/03/03 06:28:09;;;;;;;;;;;10.00;99.90;;;;;;5054170;28;19909;-77
2022/03/03 06:30:35;;;;;;;;;;;10.00;99.90;;;;;;5052716;28;19912;-77
2022/03/03 06:33:00;;;;;;;;;;;10.00;99.90;;;;;;5052664;28;19916;-78
2022/03/03 06:35:26;;;;;;;;;;;10.00;99.90;;;;;;5053828;28;20427;-77
2022/03/03 06:37:52;;;;;;;;;;;10.00;99.90;;;;;;5053717;28;19959;-77
2022/03/03 06:40:17;;;;;;;;;;;10.00;99.90;;;;;;5053840;28;19958;-77
2022/03/03 06:42:43;;;;;;;;;;;10.00;99.90;;;;;;5052511;28;19915;-80
2022/03/03 06:45:09;;;;;;;;;;;10.00;99.90;;;;;;5053852;28;19915;-80
2022/03/03 06:47:34;;;;;;;;;;;10.00;99.90;;;;;;5053379;28;19916;-80
2022/03/03 06:50:00;;;;;;;;;;;10.00;99.90;;;;;;5054013;28;19932;-80
2022/03/03 06:52:26;;;;;;;;;;;10.00;99.90;;;;;;5053653;28;20004;-77
2022/03/03 06:54:53;;;;;;;;;;;10.00;99.90;;;;;;5053537;28;19920;-78
2022/03/03 06:57:20;;;;;;;;;;;10.00;99.90;;;;;;5054096;28;19909;-79
2022/03/03 06:59:46;;;;;;;;;;;10.10;99.90;;;;;;5053531;28;19934;-78
2022/03/03 07:02:11;;;;;;;;;;;10.00;99.90;;;;;;5053468;28;20365;-76
2022/03/03 07:04:37;;;;;;;;;;;10.10;99.90;;;;;;5053832;28;20007;-77
2022/03/03 07:07:03;;;;;;;;;;;10.10;99.90;;;;;;5053482;28;19909;-79
2022/03/03 07:09:29;;;;;;;;;;;10.10;99.90;;;;;;5052201;28;19909;-77
2022/03/03 07:11:57;;;;;;;;;;;10.10;99.90;;;;;;5052229;28;20443;-77
2022/03/03 07:14:23;;;;;;;;;;;10.10;99.90;;;;;;5053476;28;19931;-77
2022/03/03 07:16:59;;;;;;;;;;;10.20;99.90;;;;;;5052069;28;19913;-78
2022/03/03 07:19:34;;;;;;;;;;;10.20;99.90;;;;;;5053590;28;19948;-78
2022/03/03 07:22:20;;;;;;;;;;;10.20;99.90;;;;;;5053413;28;19945;-78
2022/03/03 07:24:46;;;;;;;;;;;10.20;99.90;;;;;;5053401;28;20376;-77
2022/03/03 07:27:18;;;;;;;;;;;10.30;99.90;;;;;;5053818;28;20333;-78
2022/03/03 07:29:45;;;;;;;;;;;10.30;99.90;;;;;;5057334;28;19909;-77
2022/03/03 07:32:12;;;;;;;;;;;10.30;99.90;;;;;;5057409;28;19909;-79
2022/03/03 07:34:38;;;;;;;;;;;10.30;99.90;;;;;;5057246;28;19909;-77
2022/03/03 07:37:25;;;;;;;;;;;10.40;99.90;;;;;;5057077;28;19928;-76
2022/03/03 07:39:53;;;;;;;;;;;10.40;99.90;;;;;;5057604;28;19999;-77
2022/03/03 07:42:19;;;;;;;;;;;10.50;99.90;;;;;;5057120;28;20391;-77
2022/03/03 07:44:45;;;;;;;;;;;10.50;99.90;;;;;;5055825;28;19909;-76
2022/03/03 07:47:11;;;;;;;;;;;10.60;99.90;;;;;;5055767;28;19932;-77
2022/03/03 07:49:37;;;;;;;;;;;10.70;99.90;;;;;;5056798;28;20384;-77
2022/03/03 07:52:04;;;;;;;;;;;10.70;99.90;;;;;;5056983;28;19909;-77
2022/03/03 07:54:30;;;;;;;;;;;10.70;99.90;;;;;;5056922;28;20315;-77
2022/03/03 07:56:56;;;;;;;;;;;10.80;99.90;;;;;;5056774;28;19924;-77
2022/03/03 07:59:25;;;;;;;;;;;10.80;99.90;;;;;;5056933;28;19908;-77
2022/03/03 08:01:54;;;;;;;;;;;11.00;99.90;;;;;;5056730;28;19909;-79
2022/03/03 08:04:24;;;;;;;;;;;11.00;99.90;;;;;;5056565;28;20372;-77
2022/03/03 08:06:52;;;;;;;;;;;11.00;99.90;;;;;;5056799;28;19999;-78
2022/03/03 08:09:19;;;;;;;;;;;11.10;99.90;;;;;;5056635;28;20373;-78
2022/03/03 08:11:46;;;;;;;;;;;11.10;99.90;;;;;;5056582;28;20331;-78
2022/03/03 08:14:11;;;;;;;;;;;11.10;99.90;;;;;;5055265;28;20417;-76
2022/03/03 08:16:40;;;;;;;;;;;11.10;99.90;;;;;;5056414;28;20003;-77
2022/03/03 08:19:07;;;;;;;;;;;11.10;99.90;;;;;;5056406;28;19912;-77
2022/03/03 08:21:33;;;;;;;;;;;11.10;99.90;;;;;;5056459;28;20019;-77
2022/03/03 08:24:02;;;;;;;;;;;11.20;99.90;;;;;;5055093;28;19916;-78
2022/03/03 08:26:28;;;;;;;;;;;11.20;99.90;;;;;;5056407;28;19955;-76
2022/03/03 08:28:54;;;;;;;;;;;11.20;99.90;;;;;;5056279;28;19909;-78
2022/03/03 08:31:25;;;;;;;;;;;11.20;99.90;;;;;;5056597;28;19915;-78
2022/03/03 08:33:50;;;;;;;;;;;11.10;99.90;;;;;;5056462;28;20379;-77
2022/03/03 08:36:28;;;;;;;;;;;11.20;99.90;;;;;;5055892;28;19913;-77
2022/03/03 08:38:56;;;;;;;;;;;11.20;99.90;;;;;;5055977;28;19963;-77
2022/03/03 08:41:23;;;;;;;;;;;11.10;99.90;;;;;;5055994;28;20376;-77
2022/03/03 08:43:52;;;;;;;;;;;11.10;99.90;;;;;;5056266;28;19909;-77
2022/03/03 08:46:22;;;;;;;;;;;11.20;99.90;;;;;;5055921;28;20007;-77
2022/03/03 08:48:48;;;;;;;;;;;11.30;99.90;;;;;;5055843;28;20391;-77
2022/03/03 08:51:15;;;;;;;;;;;11.30;99.90;;;;;;5055723;28;19959;-78
2022/03/03 08:53:41;;;;;;;;;;;11.30;99.90;;;;;;5055715;28;19954;-78
2022/03/03 08:56:08;;;;;;;;;;;11.40;99.90;;;;;;5055691;28;20007;-79
2022/03/03 08:58:34;;;;;;;;;;;11.40;99.90;;;;;;5055705;28;19909;-78
2022/03/03 09:01:00;;;;;;;;;;;11.40;99.90;;;;;;5056033;28;20369;-78
2022/03/03 09:03:26;;;;;;;;;;;11.40;99.90;;;;;;5054316;28;19919;-77
2022/03/03 09:05:51;;;;;;;;;;;11.40;99.90;;;;;;5055578;28;19916;-77
2022/03/03 09:08:17;;;;;;;;;;;11.40;99.90;;;;;;5055477;28;20320;-77
2022/03/03 09:10:43;;;;;;;;;;;11.30;99.90;;;;;;5055503;28;19908;-77
2022/03/03 09:13:09;;;;;;;;;;;11.20;99.90;;;;;;5055449;28;20276;-78
2022/03/03 09:15:35;;;;;;;;;;;11.20;99.90;;;;;;5055656;28;19939;-77
2022/03/03 09:18:01;;;;;;;;;;;11.20;99.90;;;;;;5055527;28;19919;-78
2022/03/03 09:20:27;;;;;;;;;;;11.20;99.90;;;;;;5055282;28;19939;-77
2022/03/03 09:22:53;;;;;;;;;;;11.20;99.90;;;;;;5055251;28;19955;-77
2022/03/03 09:25:20;;;;;;;;;;;11.30;99.90;;;;;;5053906;28;19909;-78
2022/03/03 09:27:45;;;;;;;;;;;11.40;99.90;;;;;;5055148;28;19913;-78
2022/03/03 09:30:12;;;;;;;;;;;11.30;99.90;;;;;;5055189;28;19916;-78
2022/03/03 09:32:38;;;;;;;;;;;11.30;99.90;;;;;;5055105;28;19909;-79
2022/03/03 09:35:04;;;;;;;;;;;11.30;99.90;;;;;;5054931;28;20005;-77
2022/03/03 09:37:29;;;;;;;;;;;11.30;99.90;;;;;;5054828;28;19952;-78
2022/03/03 09:39:55;;;;;;;;;;;11.30;99.90;;;;;;5054945;28;20376;-78
2022/03/03 09:42:21;;;;;;;;;;;11.30;99.90;;;;;;5054878;28;20372;-78
2022/03/03 09:44:46;;;;;;;;;;;11.50;99.90;;;;;;5054818;28;19935;-79
2022/03/03 09:47:15;;;;;;;;;;;11.50;99.90;;;;;;5055012;28;19916;-80
2022/03/03 09:49:40;;;;;;;;;;;11.50;99.90;;;;;;5054528;28;19909;-78
2022/03/03 09:52:16;;;;;;;;;;;11.60;99.90;;;;;;5054476;28;19955;-78
2022/03/03 09:54:42;;;;;;;;;;;11.60;99.90;;;;;;5054483;28;20023;-78
2022/03/03 09:57:08;;;;;;;;;;;11.70;99.90;;;;;;5054642;28;19948;-81
2022/03/03 09:59:34;;;;;;;;;;;11.60;99.90;;;;;;5054546;28;19909;-77
2022/03/03 10:02:04;;;;;;;;;;;11.60;99.90;;;;;;5054623;28;19909;-79
2022/03/03 10:04:30;;;;;;;;;;;11.60;99.90;;;;;;5054437;28;20280;-78
2022/03/03 10:06:55;;;;;;;;;;;11.60;99.90;;;;;;5054444;28;19913;-79
2022/03/03 10:09:21;;;;;;;;;;;11.60;99.90;;;;;;5054318;28;19912;-81
2022/03/03 10:11:46;;;;;;;;;;;11.70;99.90;;;;;;5054585;28;19909;-80
2022/03/03 10:14:12;;;;;;;;;;;11.60;99.90;;;;;;5054340;28;19957;-78
2022/03/03 10:16:46;;;;;;;;;;;11.60;99.90;;;;;;5054113;28;20281;-78
2022/03/03 10:19:15;;;;;;;;;;;11.70;99.90;;;;;;5054374;28;19915;-79
2022/03/03 10:21:43;;;;;;;;;;;11.60;99.90;;;;;;5054167;28;19908;-78
2022/03/03 10:24:16;;;;;;;;;;;11.60;99.90;;;;;;5052804;28;20442;-77
2022/03/03 10:26:44;;;;;;;;;;;11.60;99.90;;;;;;5054080;28;19909;-80
2022/03/03 10:29:17;;;;;;;;;;;11.70;99.90;;;;;;5054231;28;20279;-79
2022/03/03 10:31:46;;;;;;;;;;;11.90;99.90;;;;;;5052678;28;19908;-80
2022/03/03 10:34:16;;;;;;;;;;;12.00;99.90;;;;;;5054018;28;20385;-78
2022/03/03 10:36:42;;;;;;;;;;;12.10;99.90;;;;;;5053648;28;20369;-81
2022/03/03 10:39:08;;;;;;;;;;;12.10;99.90;;;;;;5054252;28;19909;-78
2022/03/03 10:41:41;;;;;;;;;;;12.20;99.90;;;;;;5053728;28;19908;-79
2022/03/03 10:44:06;;;;;;;;;;;12.20;99.90;;;;;;5052508;28;19909;-80
2022/03/03 10:46:33;;;;;;;;;;;12.10;99.90;;;;;;5052513;28;20319;-80
2022/03/03 10:48:58;;;;;;;;;;;12.10;99.90;;;;;;5052465;28;19915;-77
2022/03/03 10:51:25;;;;;;;;;;;11.90;99.90;;;;;;5052176;28;19909;-79
2022/03/03 10:53:54;;;;;;;;;;;12.00;99.90;;;;;;5053932;28;19909;-78
2022/03/03 10:56:20;;;;;;;;;;;12.30;99.90;;;;;;5052274;28;20288;-79
2022/03/03 10:58:57;;;;;;;;;;;12.40;99.90;;;;;;5053752;28;19913;-78
2022/03/03 11:01:24;;;;;;;;;;;12.40;99.90;;;;;;5053265;28;19909;-77
2022/03/03 11:03:50;;;;;;;;;;;12.40;99.90;;;;;;5051716;28;19915;-80
2022/03/03 11:06:16;;;;;;;;;;;12.40;99.90;;;;;;5053558;28;19921;-78
2022/03/03 11:08:42;;;;;;;;;;;12.30;99.90;;;;;;5053489;28;19916;-79
2022/03/03 11:11:08;;;;;;;;;;;11.90;99.90;;;;;;5053658;28;19909;-78
2022/03/03 11:13:35;;;;;;;;;;;11.80;99.90;;;;;;5052171;28;20487;-79
2022/03/03 11:16:01;;;;;;;;;;;11.80;99.90;;;;;;5052114;28;20284;-78
2022/03/03 11:18:26;;;;;;;;;;;11.90;99.90;;;;;;5053436;28;19909;-78
2022/03/03 11:20:52;;;;;;;;;;;12.10;99.90;;;;;;5053421;28;19909;-79
2022/03/03 11:23:18;;;;;;;;;;;12.10;99.90;;;;;;5053608;28;19995;-77
2022/03/03 11:25:46;;;;;;;;;;;12.10;99.90;;;;;;5053402;28;19952;-78
2022/03/03 11:28:15;;;;;;;;;;;12.00;99.90;;;;;;5053419;28;19909;-78
2022/03/03 11:30:43;;;;;;;;;;;12.10;99.90;;;;;;5053307;28;19909;-78
2022/03/03 11:33:23;;;;;;;;;;;12.20;99.90;;;;;;5053224;28;19909;-78
2022/03/03 11:35:50;;;;;;;;;;;12.30;99.90;;;;;;5053384;28;20380;-78
2022/03/03 11:38:17;;;;;;;;;;;12.30;99.90;;;;;;5052759;28;20300;-78
2022/03/03 11:40:57;;;;;;;;;;;12.20;99.90;;;;;;5053773;28;19909;-77
2022/03/03 11:43:23;;;;;;;;;;;12.20;99.90;;;;;;5053174;28;19916;-77
2022/03/03 11:45:51;;;;;;;;;;;12.30;99.90;;;;;;5051875;28;20258;-77
2022/03/03 11:48:16;;;;;;;;;;;12.40;99.90;;;;;;5053472;28;19909;-77
2022/03/03 11:50:43;;;;;;;;;;;12.70;99.90;;;;;;5051799;28;19992;-77
2022/03/03 11:53:08;;;;;;;;;;;12.80;99.90;;;;;;5053204;28;19916;-78
2022/03/03 11:55:38;;;;;;;;;;;13.00;99.90;;;;;;5052961;28;19942;-77
2022/03/03 11:58:06;;;;;;;;;;;13.20;99.90;;;;;;5053113;28;19909;-78
2022/03/03 12:00:34;;;;;;;;;;;13.20;99.90;;;;;;5053315;28;19909;-78
2022/03/03 12:03:01;;;;;;;;;;;13.30;99.90;;;;;;5051786;28;19909;-79
2022/03/03 12:05:27;;;;;;;;;;;13.30;99.90;;;;;;5053043;28;20458;-77
2022/03/03 12:07:56;;;;;;;;;;;13.30;99.90;;;;;;5052958;28;19908;-78
2022/03/03 12:10:22;;;;;;;;;;;13.10;99.90;;;;;;5053011;28;20384;-78
2022/03/03 12:12:48;;;;;;;;;;;13.10;99.90;;;;;;5053053;28;19909;-78
2022/03/03 12:15:14;;;;;;;;;;;13.40;99.90;;;;;;5056249;28;20361;-77
2022/03/03 12:17:43;;;;;;;;;;;13.50;99.90;;;;;;5057086;28;19935;-77
2022/03/03 12:20:24;;;;;;;;;;;13.70;99.90;;;;;;5056640;28;20353;-79
2022/03/03 12:23:08;;;;;;;;;;;14.00;99.90;;;;;;5055128;28;20322;-78
2022/03/03 12:25:50;;;;;;;;;;;13.90;99.90;;;;;;5056324;28;19916;-78
2022/03/03 12:28:20;;;;;;;;;;;13.60;99.90;;;;;;5055016;28;19937;-77
2022/03/03 12:30:46;;;;;;;;;;;13.40;99.90;;;;;;5056486;28;19912;-78
2022/03/03 12:33:22;;;;;;;;;;;13.30;99.90;;;;;;5056232;28;19976;-78
2022/03/03 12:35:49;;;;;;;;;;;13.40;99.90;;;;;;5056488;28;19913;-77
2022/03/03 12:38:14;;;;;;;;;;;13.60;99.90;;;;;;5055752;28;19924;-76
2022/03/03 12:40:40;;;;;;;;;;;13.30;99.90;;;;;;5056044;28;20487;-78
2022/03/03 12:43:13;;;;;;;;;;;13.30;99.90;;;;;;5056025;28;19916;-77
2022/03/03 12:45:38;;;;;;;;;;;13.20;99.90;;;;;;5056256;28;19909;-78
2022/03/03 12:48:06;;;;;;;;;;;13.10;99.90;;;;;;5056073;28;20019;-78
2022/03/03 12:50:33;;;;;;;;;;;13.10;99.90;;;;;;5056398;28;19931;-78
2022/03/03 12:53:10;;;;;;;;;;;13.20;99.90;;;;;;5054429;28;19909;-77
2022/03/03 12:55:37;;;;;;;;;;;13.20;99.90;;;;;;5055703;28;20003;-78
2022/03/03 12:58:06;;;;;;;;;;;13.30;99.90;;;;;;5055931;28;19909;-78
2022/03/03 13:00:34;;;;;;;;;;;13.40;99.90;;;;;;5055861;28;20404;-78
2022/03/03 13:03:00;;;;;;;;;;;13.30;99.90;;;;;;5055761;28;20487;-77
2022/03/03 13:05:35;;;;;;;;;;;13.30;99.90;;;;;;5054324;28;19936;-77
2022/03/03 13:08:01;;;;;;;;;;;13.40;99.90;;;;;;5055566;28;19985;-78
2022/03/03 13:10:27;;;;;;;;;;;13.30;99.90;;;;;;5055549;28;20018;-78
2022/03/03 13:12:54;;;;;;;;;;;13.40;99.90;;;;;;5054109;28;20331;-78
2022/03/03 13:15:32;;;;;;;;;;;13.50;99.90;;;;;;5055254;28;19948;-77
2022/03/03 13:17:57;;;;;;;;;;;13.60;99.90;;;;;;5055400;28;20380;-79
2022/03/03 13:20:23;;;;;;;;;;;13.50;99.90;;;;;;5055297;28;19909;-77
2022/03/03 13:22:49;;;;;;;;;;;13.40;99.90;;;;;;5055295;28;19975;-78
2022/03/03 13:25:18;;;;;;;;;;;13.40;99.90;;;;;;5052963;28;20347;-78
2022/03/03 13:27:48;;;;;;;;;;;13.40;99.90;;;;;;5055250;28;19983;-77
2022/03/03 13:30:14;;;;;;;;;;;13.30;99.90;;;;;;5055315;28;20004;-77
2022/03/03 13:32:46;;;;;;;;;;;13.10;99.90;;;;;;5055195;28;19909;-79
2022/03/03 13:35:13;;;;;;;;;;;13.20;99.90;;;;;;5055101;28;19913;-77
2022/03/03 13:37:39;;;;;;;;;;;13.00;99.90;;;;;;5053511;28;20379;-77
2022/03/03 13:40:15;;;;;;;;;;;13.00;99.90;;;;;;5055218;28;19936;-78
2022/03/03 13:42:41;;;;;;;;;;;13.00;99.90;;;;;;5055234;28;19909;-77
2022/03/03 13:45:07;;;;;;;;;;;13.10;99.90;;;;;;5053569;28;19916;-78
2022/03/03 13:47:41;;;;;;;;;;;13.20;99.90;;;;;;5054725;28;19952;-77
2022/03/03 13:50:08;;;;;;;;;;;13.40;99.90;;;;;;5055024;28;20352;-77
2022/03/03 13:52:34;;;;;;;;;;;13.60;99.90;;;;;;5054875;28;19912;-78
2022/03/03 13:55:08;;;;;;;;;;;13.50;99.90;;;;;;5054619;28;19916;-78
2022/03/03 13:57:34;;;;;;;;;;;13.60;99.90;;;;;;5054713;28;19954;-78
2022/03/03 14:00:01;;;;;;;;;;;13.50;99.90;;;;;;5053258;28;20280;-77
2022/03/03 14:02:27;;;;;;;;;;;13.40;99.90;;;;;;5054553;28;19992;-78
2022/03/03 14:05:00;;;;;;;;;;;13.40;99.90;;;;;;5053185;28;19993;-78
2022/03/03 14:07:29;;;;;;;;;;;13.40;99.90;;;;;;5054504;28;19913;-77
2022/03/03 14:09:59;;;;;;;;;;;13.40;99.90;;;;;;5054348;28;20392;-78
2022/03/03 14:12:25;;;;;;;;;;;13.30;99.90;;;;;;5054152;28;19944;-79
2022/03/03 14:14:50;;;;;;;;;;;13.30;99.90;;;;;;5054172;28;19909;-77
2022/03/03 14:17:16;;;;;;;;;;;13.60;99.90;;;;;;5054678;28;19963;-77